Seabrook, NH (03874)

7:47 PM EST on February 05, 2016 (GMT -0500)
W1MSN Seabrook North | | Change Station
CLOSE
Current Station
Personal Weather Station
Location: Seabrook, NH
Elevation: 72 ft
Nearby Weather Stations

Elev 72 ft 42.90 °N, 70.87 °W | Updated 8 seconds ago

Partly Cloudy
Partly Cloudy
24.8 °F
Feels Like 25 °F
N
0.0
Wind Variable Wind from West
Gusts 0.0 mph

Today
High -- | Low -- °F
--% Chance of Precip.
Yesterday
High -- | Low -- °F
Precip. -- in
Pressure 30.07 in
Visibility 10.0 miles
Clouds Few 7500 ft
Scattered Clouds 13000 ft
Windchill 25 °F
Dew Point 20 °F
Humidity 80%
Rainfall 0.14 in
Snow Depth Not available.
6:54 AM 5:01 PM
Waning Crescent, 8% visible
METAR KPSM 052358Z 29006KT 10SM FEW075 SCT130 M03/M07 A3006 RMK AO2A SLP183 60028 4/008 T10271068 11008 21027 52037
Pressure 30.07 in
Visibility 10.0 miles
Clouds Few 7500 ft
Scattered Clouds 13000 ft
Windchill 25 °F
Dew Point 20 °F
Humidity 80%
Rainfall 0.14 in
Snow Depth Not available.
6:54 AM 5:01 PM
Waning Crescent, 8% visible
METAR KPSM 052358Z 29006KT 10SM FEW075 SCT130 M03/M07 A3006 RMK AO2A SLP183 60028 4/008 T10271068 11008 21027 52037

10-Day Weather Forecast

Almanac

Astronomy

Feb. 05, 2016 Rise Set
Actual Time
Civil Twilight
Nautical Twilight
Astronomical Twilight
Moon
Length of Visible Light
Length of Day
Tomorrow will be .
, % of the Moon is Illuminated

Today's Extremes

State Highs State Lows

Community

WunderPhotos

Upload Photos

1,890,900 photos uploaded!

WunderBlog® & News

Nearby

Air Quality

  Air Quality AQ Index Pollutant
Not available.

Snow Depth

Station Depth Elevation

Earthquake Activity

City Distance Mag. Time & Date
Minimum magnitude displayed is 2.5.

Coastal Water Temperatures

Place Temperature

Stations

Nearby Weather Stations

Station Location Temp. Windchill Dew Point Humidity Wind Precip. Elev Updated Type
                   

Watches & Warnings

There are currently no watches in effect.